Time;durP1;ratioP1;P1;durP2;ratioP2;P2;SDS_P1;SDS_P2;PMS_P1;PMS_P2;Temp;Humidity;BMP_temperature;BMP_pressure;BME280_temperature;BME280_humidity;BME280_pressure;Samples;Min_cycle;Max_cycle;Signal;HPM_P1;HPM_P2
2023/08/15 00:02:09;;;;;;;8.10;3.42;;;20.90;99.90;;;;;;5065215;28;20147;-35
2023/08/15 00:04:35;;;;;;;8.07;3.63;;;20.80;99.90;;;;;;5056239;28;20045;-34
2023/08/15 00:07:04;;;;;;;7.68;2.85;;;20.80;99.90;;;;;;5067835;28;20610;-34
2023/08/15 00:09:32;;;;;;;5.10;2.95;;;20.70;99.90;;;;;;5057477;28;20044;-34
2023/08/15 00:12:01;;;;;;;5.97;3.42;;;20.70;99.90;;;;;;5080885;28;20573;-35
2023/08/15 00:14:29;;;;;;;7.45;3.28;;;20.70;99.90;;;;;;5057655;28;20562;-35
2023/08/15 00:16:55;;;;;;;4.80;3.35;;;20.70;99.90;;;;;;5038828;28;20517;-35
2023/08/15 00:19:21;;;;;;;4.97;3.20;;;20.70;99.90;;;;;;5052875;28;20052;-34
2023/08/15 00:21:46;;;;;;;6.95;3.63;;;20.70;99.90;;;;;;5063449;28;20060;-35
2023/08/15 00:24:12;;;;;;;7.47;4.20;;;20.70;99.90;;;;;;5062768;28;20476;-34
2023/08/15 00:26:38;;;;;;;7.03;3.28;;;20.70;99.90;;;;;;5051658;28;21253;-35
2023/08/15 00:29:03;;;;;;;7.32;3.88;;;20.70;99.90;;;;;;5060903;28;20127;-35
2023/08/15 00:31:29;;;;;;;7.05;3.90;;;20.70;99.90;;;;;;5064468;28;20122;-35
2023/08/15 00:33:55;;;;;;;8.00;4.07;;;20.60;99.90;;;;;;5063086;28;20472;-35
2023/08/15 00:36:20;;;;;;;5.78;4.15;;;20.60;99.90;;;;;;5056519;28;20049;-35
2023/08/15 00:38:46;;;;;;;10.45;4.18;;;20.60;99.90;;;;;;5045092;28;20072;-35
2023/08/15 00:41:12;;;;;;;6.40;4.22;;;20.60;99.90;;;;;;5061022;28;20448;-35
2023/08/15 00:43:37;;;;;;;6.28;3.75;;;20.60;99.90;;;;;;5061864;28;20892;-34
2023/08/15 00:46:06;;;;;;;8.07;4.10;;;20.50;99.90;;;;;;5046894;28;20486;-35
2023/08/15 00:48:32;;;;;;;8.77;4.53;;;20.50;99.90;;;;;;5065315;28;20043;-35
2023/08/15 00:51:00;;;;;;;6.93;4.30;;;20.50;99.90;;;;;;5066386;28;20183;-35
2023/08/15 00:53:28;;;;;;;6.30;3.90;;;20.50;99.90;;;;;;5065200;28;20075;-35
2023/08/15 00:55:55;;;;;;;10.23;4.53;;;20.40;99.90;;;;;;5067750;28;20056;-34
2023/08/15 00:58:22;;;;;;;7.07;3.88;;;20.40;99.90;;;;;;5068211;28;20056;-34
2023/08/15 01:00:47;;;;;;;7.13;3.75;;;20.40;99.90;;;;;;5068957;28;20052;-35
2023/08/15 01:03:13;;;;;;;8.27;4.00;;;20.40;99.90;;;;;;5062562;28;20056;-34
2023/08/15 01:05:41;;;;;;;6.05;4.30;;;20.40;99.90;;;;;;5053417;28;20124;-35
2023/08/15 01:08:07;;;;;;;7.80;4.30;;;20.40;99.90;;;;;;5069688;28;20056;-35
2023/08/15 01:10:33;;;;;;;6.90;4.22;;;20.40;99.90;;;;;;5067578;28;20048;-35
2023/08/15 01:13:34;;;;;;;9.05;4.63;;;20.30;99.90;;;;;;5055560;28;20044;-35
2023/08/15 01:16:03;;;;;;;6.32;4.15;;;20.30;99.90;;;;;;5057605;28;20106;-36
2023/08/15 01:18:31;;;;;;;11.48;5.05;;;20.30;99.90;;;;;;5047888;28;20557;-36
2023/08/15 01:20:59;;;;;;;8.20;4.85;;;20.30;99.90;;;;;;5049199;28;20057;-34
2023/08/15 01:23:41;;;;;;;10.50;5.05;;;20.30;99.90;;;;;;5040176;28;20049;-34
2023/08/15 01:26:07;;;;;;;;;;;20.30;99.90;;;;;;5046054;28;20126;-35
2023/08/15 01:28:33;;;;;;;8.60;5.03;;;20.30;99.90;;;;;;5048245;28;20332;-34
2023/08/15 01:31:29;;;;;;;7.65;4.90;;;20.30;99.90;;;;;;5048726;28;20049;-34
2023/08/15 01:34:17;;;;;;;7.97;4.55;;;20.30;99.90;;;;;;5026571;28;20049;-34
2023/08/15 01:36:47;;;;;;;7.82;5.07;;;20.30;99.90;;;;;;5045469;28;20044;-34
2023/08/15 01:39:16;;;;;;;9.27;5.10;;;20.30;99.90;;;;;;5045266;28;20052;-34
2023/08/15 01:41:44;;;;;;;10.98;5.88;;;20.30;99.90;;;;;;5046043;28;20053;-34
2023/08/15 01:44:11;;;;;;;8.90;4.97;;;20.30;99.90;;;;;;5047662;28;20518;-34
2023/08/15 01:46:37;;;;;;;9.32;5.55;;;20.30;99.90;;;;;;5045244;28;20064;-34
2023/08/15 01:49:02;;;;;;;8.60;5.65;;;20.20;99.90;;;;;;5046271;28;20060;-34
2023/08/15 01:51:28;;;;;;;10.63;6.47;;;20.20;99.90;;;;;;5048140;28;20072;-34
2023/08/15 01:53:54;;;;;;;10.48;6.43;;;20.20;99.90;;;;;;5044205;28;20072;-34
2023/08/15 01:56:19;;;;;;;8.73;5.32;;;20.20;99.90;;;;;;5046215;28;20098;-34
2023/08/15 01:58:45;;;;;;;11.45;6.18;;;20.20;99.90;;;;;;5048331;28;20068;-34
2023/08/15 02:01:12;;;;;;;7.65;4.95;;;20.20;99.90;;;;;;5046906;28;20060;-34
2023/08/15 02:03:38;;;;;;;7.35;5.32;;;20.30;99.90;;;;;;5040821;28;20061;-34
2023/08/15 02:06:04;;;;;;;8.95;5.68;;;20.20;99.90;;;;;;5047341;28;20094;-34
2023/08/15 02:08:30;;;;;;;11.25;7.10;;;20.20;99.90;;;;;;5047693;28;20055;-34
2023/08/15 02:10:56;;;;;;;10.48;6.10;;;20.10;99.90;;;;;;5048392;28;20057;-34
2023/08/15 02:13:21;;;;;;;9.02;6.32;;;20.00;99.90;;;;;;5046444;28;20119;-34
2023/08/15 02:15:47;;;;;;;8.60;5.53;;;19.90;99.90;;;;;;5047671;28;20531;-34
2023/08/15 02:18:13;;;;;;;8.73;5.68;;;19.70;99.90;;;;;;5065126;28;20052;-34
2023/08/15 02:20:39;;;;;;;10.45;5.60;;;19.50;99.90;;;;;;5068151;28;20417;-34
2023/08/15 02:23:04;;;;;;;8.60;6.07;;;19.50;99.90;;;;;;5067163;28;20501;-34
2023/08/15 02:25:30;;;;;;;9.50;4.45;;;19.40;99.90;;;;;;5066515;28;20052;-34
2023/08/15 02:27:56;;;;;;;7.78;5.22;;;19.40;99.90;;;;;;5055389;28;20048;-34
2023/08/15 02:30:21;;;;;;;8.70;5.40;;;19.40;99.90;;;;;;5067745;28;20493;-34
2023/08/15 02:32:47;;;;;;;9.40;5.50;;;19.40;99.90;;;;;;5066238;28;20464;-34
2023/08/15 02:35:13;;;;;;;8.20;5.30;;;19.40;99.90;;;;;;5060595;28;20058;-34
2023/08/15 02:37:39;;;;;;;8.40;5.90;;;19.40;99.90;;;;;;5066144;28;20379;-34
2023/08/15 02:40:08;;;;;;;9.57;5.47;;;19.40;99.90;;;;;;5065688;28;20128;-34
2023/08/15 02:42:34;;;;;;;9.73;5.80;;;19.40;99.90;;;;;;5066347;28;20040;-34
2023/08/15 02:45:00;;;;;;;10.38;6.45;;;19.40;99.90;;;;;;5064012;28;20044;-34
2023/08/15 02:47:26;;;;;;;7.88;5.55;;;19.40;99.90;;;;;;5066945;28;20052;-34
2023/08/15 02:49:52;;;;;;;7.63;4.97;;;19.50;99.90;;;;;;5068212;28;20048;-34
2023/08/15 02:52:17;;;;;;;10.80;5.57;;;19.50;99.90;;;;;;5063603;28;20040;-34
2023/08/15 02:54:43;;;;;;;12.30;5.38;;;19.40;99.90;;;;;;5066539;28;20127;-34
2023/08/15 02:57:09;;;;;;;8.35;5.38;;;19.30;99.90;;;;;;5063895;28;20049;-35
2023/08/15 02:59:34;;;;;;;6.82;4.75;;;19.30;99.90;;;;;;5057622;28;20048;-35
2023/08/15 03:02:00;;;;;;;8.40;5.63;;;19.30;99.90;;;;;;5062997;28;20923;-35
2023/08/15 03:04:25;;;;;;;6.82;4.68;;;19.40;99.90;;;;;;5056270;28;20057;-34
2023/08/15 03:06:51;;;;;;;10.23;5.15;;;19.40;99.90;;;;;;5064726;28;20627;-35
2023/08/15 03:09:17;;;;;;;7.60;5.07;;;19.40;99.90;;;;;;5065433;28;20076;-35
2023/08/15 03:11:43;;;;;;;6.07;4.30;;;19.30;99.90;;;;;;5065796;28;20628;-35
2023/08/15 03:14:09;;;;;;;8.50;4.35;;;19.30;99.90;;;;;;5063621;28;20131;-35
2023/08/15 03:16:34;;;;;;;7.38;5.43;;;19.30;99.90;;;;;;5065742;28;20189;-34
2023/08/15 03:19:00;;;;;;;8.93;5.32;;;19.20;99.90;;;;;;5065419;28;20056;-35
2023/08/15 03:21:26;;;;;;;12.85;5.13;;;19.20;99.90;;;;;;5065704;28;20048;-35
2023/08/15 03:23:51;;;;;;;9.07;5.05;;;19.20;99.90;;;;;;5064925;28;20052;-35
2023/08/15 03:26:17;;;;;;;8.32;4.80;;;19.20;99.90;;;;;;5061642;28;20063;-35
2023/08/15 03:28:43;;;;;;;7.07;4.22;;;19.10;99.90;;;;;;5065527;28;20060;-35
2023/08/15 03:31:09;;;;;;;7.43;4.70;;;19.10;99.90;;;;;;5063489;28;20090;-35
2023/08/15 03:33:35;;;;;;;8.20;5.15;;;19.10;99.90;;;;;;5057671;28;20525;-35
2023/08/15 03:36:01;;;;;;;7.20;4.60;;;19.10;99.90;;;;;;5058330;28;20529;-35
2023/08/15 03:38:27;;;;;;;10.35;4.68;;;19.10;99.90;;;;;;5048698;28;20059;-35
2023/08/15 03:41:05;;;;;;;10.50;4.60;;;19.10;99.90;;;;;;5063712;28;20056;-35
2023/08/15 03:43:33;;;;;;;9.30;4.40;;;19.10;99.90;;;;;;5065635;28;20118;-35
2023/08/15 03:45:59;;;;;;;7.10;4.40;;;19.10;99.90;;;;;;5063441;28;20509;-35
2023/08/15 03:48:25;;;;;;;7.68;4.97;;;19.10;99.90;;;;;;5061896;28;20075;-35
2023/08/15 03:50:56;;;;;;;5.53;3.60;;;19.10;99.90;;;;;;5063706;28;20072;-35
2023/08/15 03:53:22;;;;;;;7.70;4.15;;;19.10;99.90;;;;;;5059040;28;20040;-35
2023/08/15 03:55:51;;;;;;;8.32;5.05;;;19.10;99.90;;;;;;5045983;28;20063;-35
2023/08/15 03:58:18;;;;;;;9.23;4.47;;;19.10;99.90;;;;;;5061476;28;20045;-37
2023/08/15 04:00:44;;;;;;;7.70;3.97;;;19.10;99.90;;;;;;5066082;28;20044;-35
2023/08/15 04:03:10;;;;;;;6.78;3.55;;;19.00;99.90;;;;;;5061901;28;21474;-34
2023/08/15 04:05:35;;;;;;;8.25;4.07;;;19.00;99.90;;;;;;5061574;28;20050;-35
2023/08/15 04:08:02;;;;;;;8.10;4.40;;;19.00;99.90;;;;;;5065286;28;20071;-35
2023/08/15 04:10:28;;;;;;;6.35;3.83;;;19.00;99.90;;;;;;5066231;28;20091;-35
2023/08/15 04:12:55;;;;;;;7.07;4.25;;;19.00;99.90;;;;;;5062009;28;20060;-35
2023/08/15 04:15:21;;;;;;;8.05;4.25;;;19.10;99.90;;;;;;5061875;28;20061;-35
2023/08/15 04:17:46;;;;;;;9.15;4.63;;;19.00;99.90;;;;;;5065017;28;20051;-34
2023/08/15 04:20:12;;;;;;;5.55;3.28;;;19.00;99.90;;;;;;5054968;28;20474;-36
2023/08/15 04:22:39;;;;;;;6.10;4.32;;;19.00;99.90;;;;;;5051603;28;20472;-36
2023/08/15 04:25:07;;;;;;;8.27;4.18;;;18.90;99.90;;;;;;5065261;28;20091;-36
2023/08/15 04:27:33;;;;;;;6.53;3.55;;;18.90;99.90;;;;;;5063127;28;20047;-36
2023/08/15 04:29:58;;;;;;;5.90;2.92;;;18.80;99.90;;;;;;5055309;28;20048;-36
2023/08/15 04:32:24;;;;;;;6.47;3.08;;;18.80;99.90;;;;;;5064750;28;20040;-37
2023/08/15 04:34:50;;;;;;;5.13;3.22;;;18.80;99.90;;;;;;5064514;28;20044;-35
2023/08/15 04:37:15;;;;;;;5.47;3.35;;;18.70;99.90;;;;;;5063550;28;20047;-35
2023/08/15 04:39:41;;;;;;;6.75;3.67;;;18.70;99.90;;;;;;5065439;28;20371;-35
2023/08/15 04:42:07;;;;;;;6.68;3.22;;;18.60;99.90;;;;;;5046055;28;20045;-35
2023/08/15 04:44:32;;;;;;;5.95;2.50;;;18.60;99.90;;;;;;5063476;28;20052;-34
2023/08/15 04:46:58;;;;;;;6.55;2.72;;;18.40;99.90;;;;;;5066704;28;20056;-35
2023/08/15 04:49:23;;;;;;;4.22;2.10;;;18.40;99.90;;;;;;5065414;28;20044;-35
2023/08/15 04:51:50;;;;;;;3.75;1.98;;;18.40;99.90;;;;;;5060785;28;20052;-35
2023/08/15 04:54:15;;;;;;;4.28;2.15;;;18.40;99.90;;;;;;5051697;28;20056;-35
2023/08/15 04:56:41;;;;;;;4.07;2.22;;;18.40;99.90;;;;;;5053954;28;20056;-35
2023/08/15 04:59:06;;;;;;;3.17;2.03;;;18.40;99.90;;;;;;5066683;28;20140;-35
2023/08/15 05:01:32;;;;;;;4.03;2.03;;;18.40;99.90;;;;;;5064623;28;20048;-35
2023/08/15 05:03:58;;;;;;;4.93;2.50;;;18.40;99.90;;;;;;5050690;28;20057;-35
2023/08/15 05:06:23;;;;;;;4.63;2.35;;;18.40;99.90;;;;;;5051701;28;20057;-35
2023/08/15 05:08:49;;;;;;;5.53;2.55;;;18.30;99.90;;;;;;5064945;28;20086;-35
2023/08/15 05:11:15;;;;;;;5.95;2.00;;;18.30;99.90;;;;;;5064039;28;20063;-35
2023/08/15 05:13:40;;;;;;;6.18;2.53;;;18.30;99.90;;;;;;5052633;28;20139;-35
2023/08/15 05:16:06;;;;;;;6.53;2.55;;;18.30;99.90;;;;;;5049616;28;20067;-35
2023/08/15 05:18:31;;;;;;;4.32;2.38;;;18.30;99.90;;;;;;5064733;28;20072;-36
2023/08/15 05:20:57;;;;;;;6.28;3.13;;;18.30;99.90;;;;;;5064673;28;20055;-34
2023/08/15 05:23:23;;;;;;;6.13;2.85;;;18.20;99.90;;;;;;5062377;28;20044;-35
2023/08/15 05:25:48;;;;;;;7.15;2.70;;;18.20;99.90;;;;;;5064903;28;20057;-35
2023/08/15 05:28:14;;;;;;;8.10;3.30;;;18.30;99.90;;;;;;5054700;28;20044;-35
2023/08/15 05:30:41;;;;;;;7.78;2.80;;;18.20;99.90;;;;;;5068594;28;20049;-35
2023/08/15 05:33:07;;;;;;;5.57;2.53;;;18.10;99.90;;;;;;5057544;28;20063;-35
2023/08/15 05:35:33;;;;;;;6.32;2.33;;;18.10;99.90;;;;;;5068517;28;20053;-35
2023/08/15 05:37:59;;;;;;;5.20;2.30;;;18.10;99.90;;;;;;5061016;28;20235;-34
2023/08/15 05:40:26;;;;;;;6.65;2.42;;;18.00;99.90;;;;;;5065863;28;20044;-34
2023/08/15 05:42:52;;;;;;;7.30;2.70;;;18.00;99.90;;;;;;5046463;28;20558;-34
2023/08/15 05:45:17;;;;;;;7.57;2.63;;;18.00;99.90;;;;;;5062111;28;20040;-34
2023/08/15 05:47:43;;;;;;;11.13;2.65;;;18.00;99.90;;;;;;5068330;28;21225;-34
2023/08/15 05:50:09;;;;;;;7.90;3.15;;;18.00;99.90;;;;;;5067148;28;20127;-34
2023/08/15 05:52:35;;;;;;;7.28;2.65;;;18.00;99.90;;;;;;5062221;28;20388;-34
2023/08/15 05:55:01;;;;;;;4.53;1.95;;;18.10;99.90;;;;;;5062341;28;20070;-34
2023/08/15 05:57:26;;;;;;;6.22;2.10;;;18.00;99.90;;;;;;5066895;28;20048;-34
2023/08/15 05:59:52;;;;;;;6.95;2.13;;;18.10;99.90;;;;;;5067445;28;20049;-34
2023/08/15 06:02:19;;;;;;;5.15;2.33;;;18.10;99.90;;;;;;5060959;28;20051;-34
2023/08/15 06:04:44;;;;;;;5.97;2.63;;;18.20;99.90;;;;;;5065215;28;20052;-34
2023/08/15 06:07:12;;;;;;;6.40;2.97;;;18.30;99.90;;;;;;5065181;28;20158;-35
2023/08/15 06:09:38;;;;;;;5.40;2.20;;;18.40;99.90;;;;;;5050910;28;20048;-34
2023/08/15 06:12:04;;;;;;;5.88;2.15;;;18.40;99.90;;;;;;5060763;28;20052;-34
2023/08/15 06:14:30;;;;;;;4.95;2.42;;;18.50;99.90;;;;;;5055904;28;20052;-34
2023/08/15 06:16:56;;;;;;;4.13;2.10;;;18.50;99.90;;;;;;5064323;28;20059;-34
2023/08/15 06:19:21;;;;;;;6.03;2.30;;;18.60;99.90;;;;;;5067141;28;20486;-35
2023/08/15 06:21:47;;;;;;;6.57;2.42;;;18.70;99.90;;;;;;5060913;28;20432;-35
2023/08/15 06:24:13;;;;;;;9.45;2.58;;;18.70;99.90;;;;;;5067109;28;20515;-35
2023/08/15 06:26:39;;;;;;;5.60;2.65;;;18.70;99.90;;;;;;5063610;28;20174;-35
2023/08/15 06:29:08;;;;;;;7.95;3.03;;;18.80;99.90;;;;;;5062548;28;20060;-34
2023/08/15 06:31:35;;;;;;;6.40;2.60;;;18.80;99.90;;;;;;5063648;28;20327;-34
2023/08/15 06:34:02;;;;;;;5.60;2.67;;;18.80;99.90;;;;;;5061825;28;20052;-34
2023/08/15 06:36:28;;;;;;;6.47;2.83;;;18.80;99.90;;;;;;5061653;28;20059;-34
2023/08/15 06:38:55;;;;;;;7.97;2.70;;;18.90;99.90;;;;;;5067125;28;20098;-34
2023/08/15 06:41:21;;;;;;;7.45;2.35;;;18.90;99.90;;;;;;5062554;28;20543;-33
2023/08/15 06:43:46;;;;;;;5.30;2.47;;;19.00;99.90;;;;;;5063649;28;20052;-33
2023/08/15 06:46:13;;;;;;;5.57;2.38;;;19.10;99.90;;;;;;5053135;28;20048;-33
2023/08/15 06:48:39;;;;;;;8.85;2.38;;;19.30;99.90;;;;;;5062599;28;20064;-33
2023/08/15 06:51:05;;;;;;;4.50;1.60;;;19.50;99.90;;;;;;5065104;28;20149;-33
2023/08/15 06:53:31;;;;;;;4.38;1.23;;;19.70;99.90;;;;;;5054416;28;20161;-33
2023/08/15 06:55:57;;;;;;;5.93;2.22;;;19.90;99.90;;;;;;5066345;28;20052;-33
2023/08/15 06:58:22;;;;;;;4.75;1.40;;;20.20;99.90;;;;;;5059859;28;20604;-33
2023/08/15 07:00:48;;;;;;;6.78;1.90;;;20.40;99.90;;;;;;5064158;28;20390;-33
2023/08/15 07:03:15;;;;;;;5.57;1.70;;;20.50;99.90;;;;;;5061477;28;20041;-33
2023/08/15 07:05:41;;;;;;;6.60;2.17;;;20.50;99.90;;;;;;5054780;28;20095;-33
2023/08/15 07:08:07;;;;;;;5.43;1.33;;;20.70;99.90;;;;;;5061029;28;20044;-34
2023/08/15 07:10:34;;;;;;;7.35;3.35;;;20.80;99.90;;;;;;5055093;28;20047;-34
2023/08/15 07:13:00;;;;;;;3.22;1.70;;;20.90;99.90;;;;;;5063441;28;20513;-34
2023/08/15 07:15:26;;;;;;;4.28;1.92;;;21.00;99.90;;;;;;5066103;28;20044;-34
2023/08/15 07:17:52;;;;;;;5.95;2.65;;;21.00;99.90;;;;;;5062606;28;20044;-34
2023/08/15 07:20:18;;;;;;;6.57;2.10;;;21.10;99.90;;;;;;5066839;28;20051;-34
2023/08/15 07:22:43;;;;;;;9.65;2.15;;;21.10;99.90;;;;;;5059090;28;20394;-34
2023/08/15 07:25:10;;;;;;;11.48;2.20;;;21.20;99.90;;;;;;5057886;28;20410;-34
2023/08/15 07:27:36;;;;;;;6.15;2.30;;;21.20;99.90;;;;;;5060234;28;20487;-34
2023/08/15 07:30:02;;;;;;;7.50;1.75;;;21.20;99.90;;;;;;5062499;28;20059;-34
2023/08/15 07:32:28;;;;;;;7.03;1.83;;;21.10;99.90;;;;;;5064749;28;20182;-34
2023/08/15 07:34:54;;;;;;;8.70;2.58;;;21.20;99.90;;;;;;5060162;28;20104;-34
2023/08/15 07:37:20;;;;;;;10.30;2.70;;;21.10;99.90;;;;;;5048945;28;20061;-34
2023/08/15 07:39:55;;;;;;;5.82;2.35;;;21.20;99.90;;;;;;5066486;28;20068;-34
2023/08/15 07:42:20;;;;;;;8.32;2.15;;;21.20;99.90;;;;;;5054699;28;20080;-34
2023/08/15 07:44:47;;;;;;;8.18;2.70;;;21.30;99.90;;;;;;5062146;28;20471;-34
2023/08/15 07:47:12;;;;;;;7.68;2.60;;;21.30;99.90;;;;;;5046421;28;21742;-34
2023/08/15 07:49:38;;;;;;;5.82;2.60;;;21.40;99.90;;;;;;5066209;28;20472;-34
2023/08/15 07:52:04;;;;;;;6.25;2.78;;;21.40;99.90;;;;;;5061673;28;20456;-34
2023/08/15 07:54:30;;;;;;;7.70;2.78;;;21.50;99.90;;;;;;5062482;28;20053;-34
2023/08/15 07:56:56;;;;;;;7.10;3.05;;;21.50;99.90;;;;;;5060014;28;20417;-34
2023/08/15 07:59:22;;;;;;;6.32;2.92;;;21.50;99.90;;;;;;5063508;28;20143;-34
2023/08/15 08:01:48;;;;;;;6.13;2.78;;;21.60;99.90;;;;;;5063002;28;20036;-34
2023/08/15 08:04:14;;;;;;;8.88;2.95;;;21.60;99.90;;;;;;5063590;28;20058;-34
2023/08/15 08:06:39;;;;;;;6.55;2.80;;;21.60;99.90;;;;;;5062601;28;20059;-34
2023/08/15 08:09:05;;;;;;;4.93;2.47;;;21.60;99.90;;;;;;5063792;28;20072;-34
2023/08/15 08:11:31;;;;;;;9.05;3.53;;;21.70;99.90;;;;;;5056789;28;20126;-34
2023/08/15 08:13:57;;;;;;;5.97;3.00;;;21.80;99.90;;;;;;5062783;28;20052;-33
2023/08/15 08:16:23;;;;;;;5.03;2.35;;;21.80;99.90;;;;;;5056174;28;20487;-33
2023/08/15 08:18:49;;;;;;;3.83;2.05;;;21.90;99.90;;;;;;5042405;28;20056;-34
2023/08/15 08:21:15;;;;;;;5.35;2.22;;;21.80;99.90;;;;;;5066504;28;20480;-34
2023/08/15 08:23:40;;;;;;;5.47;2.30;;;21.80;99.90;;;;;;5060147;28;20508;-33
2023/08/15 08:26:06;;;;;;;4.68;2.33;;;21.80;99.90;;;;;;5065046;28;21278;-33
2023/08/15 08:28:32;;;;;;;8.55;2.58;;;21.90;99.90;;;;;;5052353;28;20128;-33
2023/08/15 08:30:58;;;;;;;4.88;2.15;;;21.90;99.90;;;;;;5038978;28;20052;-33
2023/08/15 08:33:25;;;;;;;5.05;1.70;;;22.00;99.90;;;;;;5052832;28;20490;-34
2023/08/15 08:35:50;;;;;;;5.45;1.80;;;22.20;99.90;;;;;;5065683;28;20048;-33
2023/08/15 08:38:16;;;;;;;6.95;1.58;;;22.30;99.90;;;;;;5059345;28;20412;-34
2023/08/15 08:40:42;;;;;;;5.40;1.33;;;22.50;99.90;;;;;;5057797;28;20392;-33
2023/08/15 08:43:10;;;;;;;3.90;1.38;;;22.60;99.90;;;;;;5047242;28;20056;-33
2023/08/15 08:45:40;;;;;;;5.22;1.48;;;22.80;99.90;;;;;;5061543;28;20057;-33
2023/08/15 08:48:09;;;;;;;5.68;1.17;;;22.90;99.90;;;;;;5051572;28;20071;-33
2023/08/15 08:50:35;;;;;;;4.03;1.27;;;23.00;99.90;;;;;;5037273;28;20067;-32
2023/08/15 08:53:01;;;;;;;5.68;1.33;;;23.00;99.90;;;;;;5039472;28;20053;-33
2023/08/15 08:55:27;;;;;;;3.63;1.00;;;22.90;99.90;;;;;;5058888;28;20060;-43
2023/08/15 08:57:54;;;;;;;7.45;1.27;;;22.90;99.90;;;;;;5054342;28;20045;-33
2023/08/15 09:00:31;;;;;;;3.72;1.00;;;22.80;99.90;;;;;;5049901;28;20045;-33
2023/08/15 09:02:57;;;;;;;5.22;1.20;;;22.70;99.90;;;;;;5053342;28;20586;-33
2023/08/15 09:05:23;;;;;;;3.50;1.00;;;22.70;99.90;;;;;;5060521;28;20049;-33
2023/08/15 09:07:49;;;;;;;4.40;1.10;;;22.70;99.90;;;;;;5057422;28;20072;-33
2023/08/15 09:10:15;;;;;;;5.68;1.30;;;22.70;99.90;;;;;;5056211;28;20114;-33
2023/08/15 09:12:42;;;;;;;4.50;1.67;;;22.60;99.90;;;;;;5067756;28;20494;-34
2023/08/15 09:15:09;;;;;;;5.47;1.75;;;22.60;99.90;;;;;;5062097;28;20086;-33
2023/08/15 09:17:38;;;;;;;5.40;1.45;;;22.70;99.90;;;;;;5055935;28;20132;-34
2023/08/15 09:20:12;;;;;;;6.50;1.98;;;22.70;99.90;;;;;;5048100;28;20046;-34
2023/08/15 09:22:45;;;;;;;5.72;1.58;;;22.70;99.90;;;;;;5061836;28;20043;-34
2023/08/15 09:25:15;;;;;;;6.07;1.60;;;22.80;99.90;;;;;;5051964;28;20071;-34
2023/08/15 09:27:43;;;;;;;6.32;1.13;;;22.80;99.90;;;;;;5056315;28;20525;-34
2023/08/15 09:30:11;;;;;;;7.10;1.50;;;22.80;99.90;;;;;;5059447;28;20147;-34
2023/08/15 09:32:40;;;;;;;7.82;1.95;;;22.90;99.90;;;;;;5055836;28;20413;-34
2023/08/15 09:35:07;;;;;;;5.05;1.58;;;22.80;99.90;;;;;;5064065;28;20049;-34
2023/08/15 09:37:33;;;;;;;5.60;1.67;;;22.70;99.90;;;;;;5047658;28;20053;-34
2023/08/15 09:40:00;;;;;;;5.95;2.35;;;22.60;99.90;;;;;;5039451;28;20064;-41
2023/08/15 09:42:27;;;;;;;2.78;1.20;;;22.70;99.90;;;;;;5045153;28;20165;-34
2023/08/15 09:44:54;;;;;;;4.95;1.05;;;22.70;99.90;;;;;;5058645;28;20044;-32
2023/08/15 09:47:21;;;;;;;3.50;1.25;;;22.80;99.90;;;;;;5060403;28;20056;-32
2023/08/15 09:49:52;;;;;;;3.60;1.27;;;23.00;99.90;;;;;;5057618;28;20520;-33
2023/08/15 09:52:19;;;;;;;5.20;1.40;;;23.20;99.90;;;;;;5062398;28;20498;-33
2023/08/15 09:54:45;;;;;;;6.15;1.48;;;23.20;99.90;;;;;;5063273;28;20092;-33
2023/08/15 09:57:10;;;;;;;3.03;1.02;;;23.20;99.90;;;;;;5064809;28;20063;-33
2023/08/15 09:59:37;;;;;;;5.82;1.40;;;23.20;99.90;;;;;;5068961;28;20044;-33
2023/08/15 10:02:09;;;;;;;4.57;1.48;;;23.40;99.90;;;;;;5054990;28;20114;-33
2023/08/15 10:04:35;;;;;;;6.35;1.60;;;23.60;99.90;;;;;;5054722;28;20063;-33
2023/08/15 10:07:01;;;;;;;6.13;1.08;;;23.60;99.90;;;;;;5064430;28;20064;-33
2023/08/15 10:09:30;;;;;;;3.45;1.20;;;23.60;99.90;;;;;;5064742;28;20055;-33
2023/08/15 10:11:58;;;;;;;3.80;1.42;;;23.60;99.90;;;;;;5064004;28;20071;-33
2023/08/15 10:14:24;;;;;;;5.13;1.70;;;23.60;99.90;;;;;;5043099;28;20092;-34
2023/08/15 10:16:50;;;;;;;5.60;2.00;;;23.40;99.90;;;;;;5061137;28;20037;-34
2023/08/15 10:19:19;;;;;;;4.72;1.40;;;23.30;99.90;;;;;;5050667;28;20063;-34
2023/08/15 10:21:51;;;;;;;4.93;1.50;;;23.10;99.90;;;;;;5066326;28;20382;-34
2023/08/15 10:24:17;;;;;;;5.18;1.73;;;22.90;99.90;;;;;;5061966;28;20052;-34
2023/08/15 10:26:44;;;;;;;3.78;1.13;;;22.80;99.90;;;;;;5062449;28;20067;-33
2023/08/15 10:29:10;;;;;;;3.78;1.50;;;22.90;99.90;;;;;;5062701;28;20048;-34
2023/08/15 10:31:38;;;;;;;4.13;1.48;;;23.00;99.90;;;;;;5065589;28;20058;-33
2023/08/15 10:34:05;;;;;;;7.20;1.52;;;23.00;99.90;;;;;;5063777;28;20113;-33
2023/08/15 10:36:30;;;;;;;4.90;1.77;;;23.10;99.90;;;;;;5050616;28;20068;-34
2023/08/15 10:39:02;;;;;;;3.70;1.20;;;23.10;99.90;;;;;;5046561;28;20419;-34
2023/08/15 10:41:28;;;;;;;6.15;1.83;;;23.10;99.90;;;;;;5053936;28;20052;-34
2023/08/15 10:43:55;;;;;;;3.45;1.33;;;23.20;99.90;;;;;;5063712;28;20387;-34
2023/08/15 10:46:29;;;;;;;5.80;1.88;;;23.20;99.90;;;;;;5065544;28;20418;-34
2023/08/15 10:48:59;;;;;;;6.90;1.75;;;23.20;99.90;;;;;;5045611;28;20053;-34
2023/08/15 10:51:43;;;;;;;6.13;2.22;;;23.10;99.90;;;;;;5074938;28;20067;-33
2023/08/15 10:54:13;;;;;;;5.72;1.95;;;23.00;99.90;;;;;;5058248;28;20118;-34
2023/08/15 10:56:41;;;;;;;4.60;2.20;;;23.10;99.90;;;;;;5062484;28;20383;-34
2023/08/15 10:59:14;;;;;;;4.20;1.67;;;23.30;99.90;;;;;;5046671;28;20077;-34
2023/08/15 11:01:42;;;;;;;6.50;1.80;;;23.40;99.90;;;;;;5056677;28;20045;-34
2023/08/15 11:04:12;;;;;;;6.90;1.80;;;23.50;99.90;;;;;;5060471;28;20541;-33
2023/08/15 11:06:41;;;;;;;4.88;2.10;;;23.50;99.90;;;;;;5055096;28;20053;-33
2023/08/15 11:09:07;;;;;;;4.57;1.92;;;23.50;99.90;;;;;;5047616;28;20052;-33
2023/08/15 11:11:36;;;;;;;5.88;2.30;;;23.50;99.90;;;;;;5052982;28;20551;-33
2023/08/15 11:14:01;;;;;;;4.20;1.75;;;23.50;99.90;;;;;;5038118;28;20053;-33
2023/08/15 11:16:27;;;;;;;5.82;1.40;;;23.50;99.90;;;;;;5038662;28;20403;-34
2023/08/15 11:18:57;;;;;;;5.18;1.85;;;23.60;99.90;;;;;;5048318;28;20082;-34
2023/08/15 11:21:27;;;;;;;6.35;2.85;;;23.60;99.90;;;;;;5057695;28;20059;-34
2023/08/15 11:23:54;;;;;;;5.85;2.72;;;23.60;99.90;;;;;;5052664;28;20057;-34
2023/08/15 11:26:23;;;;;;;7.70;2.47;;;23.50;99.90;;;;;;5052435;28;20177;-34
2023/08/15 11:28:49;;;;;;;5.03;1.80;;;23.50;99.90;;;;;;5058805;28;20048;-34
2023/08/15 11:31:16;;;;;;;6.32;2.05;;;23.60;99.90;;;;;;5058260;28;20051;-34
2023/08/15 11:33:42;;;;;;;3.80;1.55;;;23.60;99.90;;;;;;5060388;28;20048;-34
2023/08/15 11:36:10;;;;;;;3.65;1.40;;;23.70;99.90;;;;;;5058786;28;20056;-34
2023/08/15 11:38:37;;;;;;;11.25;2.38;;;23.70;99.90;;;;;;5057548;28;20048;-34
2023/08/15 11:41:04;;;;;;;6.93;2.05;;;23.60;99.90;;;;;;5061414;28;20412;-34
2023/08/15 11:43:30;;;;;;;6.90;1.80;;;23.30;99.90;;;;;;5051220;28;20066;-34
2023/08/15 11:45:56;;;;;;;4.70;1.63;;;23.20;99.90;;;;;;5060378;28;20056;-34
2023/08/15 11:48:22;;;;;;;5.88;1.70;;;23.20;99.90;;;;;;5062301;28;20615;-35
2023/08/15 11:50:50;;;;;;;4.88;1.58;;;23.10;99.90;;;;;;5056391;28;20617;-34
2023/08/15 11:53:17;;;;;;;5.72;1.55;;;23.10;99.90;;;;;;5060931;28;20072;-34
2023/08/15 11:55:44;;;;;;;3.63;1.60;;;23.10;99.90;;;;;;5063515;28;20044;-34
2023/08/15 11:58:23;;;;;;;3.40;1.40;;;23.10;99.90;;;;;;5061281;28;20073;-34
2023/08/15 12:01:01;;;;;;;4.97;1.80;;;23.00;99.90;;;;;;5059990;28;20055;-34
2023/08/15 12:03:27;;;;;;;5.10;1.17;;;23.00;99.90;;;;;;5054998;28;20144;-34
2023/08/15 12:05:57;;;;;;;5.82;1.90;;;22.90;99.90;;;;;;5046700;28;20050;-34
2023/08/15 12:08:27;;;;;;;4.60;1.75;;;22.90;99.90;;;;;;5056125;28;20060;-34
2023/08/15 12:10:58;;;;;;;2.60;1.30;;;22.80;99.90;;;;;;5052162;28;20863;-34
2023/08/15 12:13:38;;;;;;;7.07;2.10;;;22.90;99.90;;;;;;5053800;28;20109;-34
2023/08/15 12:16:06;;;;;;;6.15;1.95;;;23.00;99.90;;;;;;5062441;28;20497;-34
2023/08/15 12:18:32;;;;;;;4.03;1.77;;;23.10;99.90;;;;;;5061376;28;20506;-34
2023/08/15 12:20:58;;;;;;;6.93;2.38;;;23.20;99.90;;;;;;5060644;28;20052;-34
2023/08/15 12:23:25;;;;;;;5.07;2.20;;;23.40;99.90;;;;;;5061347;28;20336;-34
2023/08/15 12:25:51;;;;;;;5.00;2.53;;;23.50;99.90;;;;;;5059596;28;20494;-34
2023/08/15 12:28:20;;;;;;;3.90;1.98;;;23.60;99.90;;;;;;5058677;28;20040;-34
2023/08/15 12:30:46;;;;;;;5.88;2.10;;;23.60;99.90;;;;;;5058023;28;20052;-46
2023/08/15 12:33:12;;;;;;;3.30;1.60;;;23.70;99.90;;;;;;5053988;28;20055;-34
2023/08/15 12:35:38;;;;;;;6.95;1.90;;;23.90;99.90;;;;;;5063174;28;20048;-34
2023/08/15 12:38:03;;;;;;;8.10;2.10;;;24.00;99.90;;;;;;5042813;28;20132;-34
2023/08/15 12:40:29;;;;;;;4.45;2.45;;;24.10;99.90;;;;;;5049189;28;21075;-34
2023/08/15 12:42:55;;;;;;;4.03;1.92;;;24.00;99.90;;;;;;5058890;28;20052;-34
2023/08/15 12:45:21;;;;;;;6.03;1.85;;;23.90;99.90;;;;;;5057912;28;20052;-34